Time;durP1;ratioP1;P1;durP2;ratioP2;P2;SDS_P1;SDS_P2;PMS_P1;PMS_P2;Temp;Humidity;BMP_temperature;BMP_pressure;BME280_temperature;BME280_humidity;BME280_pressure;Samples;Min_cycle;Max_cycle;Signal;HPM_P1;HPM_P2
2024/01/26 00:02:00;;;;;;;9.98;5.50;;;10.70;99.90;;;;;;10545789;27;20051;-57
2024/01/26 00:07:02;;;;;;;14.50;8.50;;;10.60;99.90;;;;;;10540558;28;20143;-58
2024/01/26 00:12:07;;;;;;;16.10;7.20;;;10.60;99.90;;;;;;10546740;28;20137;-58
2024/01/26 00:17:09;;;;;;;17.05;9.65;;;10.70;99.90;;;;;;10543766;27;20054;-58
2024/01/26 00:22:11;;;;;;;12.43;7.87;;;10.70;99.90;;;;;;10544712;28;20047;-58
2024/01/26 00:27:14;;;;;;;14.10;8.00;;;10.80;99.90;;;;;;10547723;28;20047;-60
2024/01/26 00:32:16;;;;;;;21.08;7.32;;;10.90;99.90;;;;;;10552821;27;20047;-60
2024/01/26 00:37:18;;;;;;;13.23;6.47;;;10.80;99.90;;;;;;10552205;27;20126;-58
2024/01/26 00:42:21;;;;;;;7.95;4.97;;;11.00;99.90;;;;;;10553197;27;20051;-60
2024/01/26 00:47:24;;;;;;;9.82;5.63;;;10.90;99.90;;;;;;10553872;27;20095;-60
2024/01/26 00:52:25;;;;;;;16.25;6.10;;;10.80;99.90;;;;;;10552824;27;20051;-58
2024/01/26 00:57:29;;;;;;;11.65;5.93;;;10.90;99.90;;;;;;10551697;27;20039;-59
2024/01/26 01:02:31;;;;;;;11.68;5.30;;;10.90;99.90;;;;;;10554762;27;20052;-60
2024/01/26 01:07:33;;;;;;;9.50;6.47;;;11.20;99.90;;;;;;10554138;27;20043;-59
2024/01/26 01:12:38;;;;;;;19.40;5.65;;;11.20;99.90;;;;;;10554529;27;20062;-58
2024/01/26 01:17:41;;;;;;;9.68;5.63;;;11.20;99.90;;;;;;10553491;27;20039;-58
2024/01/26 01:22:44;;;;;;;;;;;11.10;99.90;;;;;;10551060;27;20471;-58
2024/01/26 01:27:47;;;;;;;9.50;5.32;;;11.20;99.90;;;;;;10553969;27;19919;-59
2024/01/26 01:32:49;;;;;;;15.45;6.13;;;10.90;99.90;;;;;;10553711;27;20134;-60
2024/01/26 01:37:51;;;;;;;4.95;2.08;;;11.00;99.90;;;;;;10554155;27;20066;-62
2024/01/26 01:42:55;;;;;;;10.50;5.60;;;11.30;99.90;;;;;;10557153;27;21159;-60
2024/01/26 01:47:59;;;;;;;7.43;4.80;;;11.20;99.90;;;;;;10554671;27;20047;-59
2024/01/26 01:53:04;;;;;;;9.50;5.05;;;11.30;99.90;;;;;;10555974;27;20059;-59
2024/01/26 01:58:08;;;;;;;11.40;4.57;;;11.50;99.90;;;;;;10550789;27;20525;-58
2024/01/26 02:03:10;;;;;;;9.77;5.25;;;11.80;99.90;;;;;;10551284;27;20105;-59
2024/01/26 02:08:12;;;;;;;8.15;4.78;;;12.00;99.90;;;;;;10553680;27;20050;-59
2024/01/26 02:13:15;;;;;;;9.77;4.45;;;12.40;99.90;;;;;;10551570;27;20426;-59
2024/01/26 02:18:17;;;;;;;6.63;4.80;;;12.40;99.90;;;;;;10549081;27;20044;-57
2024/01/26 02:23:24;;;;;;;7.88;4.85;;;12.10;99.90;;;;;;10551688;27;20119;-61
2024/01/26 02:28:26;;;;;;;11.38;4.70;;;12.20;99.90;;;;;;10549413;27;20452;-59
2024/01/26 02:33:28;;;;;;;5.63;3.40;;;12.20;99.90;;;;;;10549682;27;23195;-60
2024/01/26 02:38:31;;;;;;;13.88;5.53;;;12.40;99.90;;;;;;10549560;27;20729;-60
2024/01/26 02:43:33;;;;;;;6.72;4.03;;;12.00;99.90;;;;;;10552014;27;20044;-59
2024/01/26 02:48:35;;;;;;;4.57;2.00;;;12.80;99.90;;;;;;10544859;27;20074;-60
2024/01/26 02:53:40;;;;;;;8.98;5.78;;;12.70;99.90;;;;;;10546112;27;20720;-59
2024/01/26 02:58:42;;;;;;;11.68;7.18;;;12.10;99.90;;;;;;10545982;27;20172;-59
2024/01/26 03:03:45;;;;;;;9.87;6.37;;;11.70;99.90;;;;;;10559163;27;20466;-60
2024/01/26 03:08:48;;;;;;;11.90;6.53;;;12.20;99.90;;;;;;10544940;27;20600;-58
2024/01/26 03:13:51;;;;;;;10.13;6.53;;;11.90;99.90;;;;;;10547013;27;20514;-60
2024/01/26 03:18:53;;;;;;;16.90;6.90;;;12.70;99.90;;;;;;10546187;27;20761;-60
2024/01/26 03:23:56;;;;;;;10.32;6.75;;;12.70;99.90;;;;;;10544791;27;20058;-60
2024/01/26 03:28:58;;;;;;;13.02;7.80;;;12.90;99.90;;;;;;10545408;27;20138;-59
2024/01/26 03:34:00;;;;;;;9.30;5.57;;;12.60;99.90;;;;;;10544654;27;20101;-60
2024/01/26 03:39:04;;;;;;;12.75;6.97;;;12.50;99.90;;;;;;10542205;27;20185;-58
2024/01/26 03:44:08;;;;;;;9.85;5.95;;;12.80;99.90;;;;;;10548446;27;20172;-59
2024/01/26 03:49:10;;;;;;;9.82;5.60;;;13.20;99.90;;;;;;10552022;27;20048;-59
2024/01/26 03:54:13;;;;;;;7.03;4.65;;;13.10;99.90;;;;;;10545362;27;20521;-57
2024/01/26 04:15:32;;;;;;;0.10;0.10;;;12.90;99.90;;;;;;10541551;27;20717;-59
2024/01/26 04:20:36;;;;;;;1.42;1.30;;;13.40;99.90;;;;;;10559873;28;20793;-60
2024/01/26 04:25:39;;;;;;;0.13;0.13;;;12.50;99.90;;;;;;10562333;28;20745;-60
2024/01/26 04:30:43;;;;;;;0.10;0.10;;;12.90;99.90;;;;;;10563390;28;20051;-59
2024/01/26 04:35:45;;;;;;;0.20;0.20;;;12.40;99.90;;;;;;10558597;28;20142;-59
2024/01/26 04:40:47;;;;;;;0.43;0.43;;;12.20;99.90;;;;;;10562848;28;20115;-61
2024/01/26 04:45:51;;;;;;;0.30;0.30;;;12.50;99.90;;;;;;10565908;27;20047;-61
2024/01/26 04:50:53;;;;;;;0.17;0.17;;;12.90;99.90;;;;;;10564788;27;20142;-61
2024/01/26 04:55:55;;;;;;;0.57;0.57;;;13.10;99.90;;;;;;10556614;28;20395;-59
2024/01/26 05:00:58;;;;;;;0.30;0.30;;;13.00;99.90;;;;;;10559621;27;20040;-60
2024/01/26 05:06:00;;;;;;;0.13;0.13;;;12.60;99.90;;;;;;10554595;28;20048;-60
2024/01/26 05:11:03;;;;;;;0.20;0.20;;;12.20;99.90;;;;;;10557328;27;20059;-60
2024/01/26 05:16:07;;;;;;;0.30;0.30;;;11.80;99.90;;;;;;10557005;28;20051;-59
2024/01/26 05:21:10;;;;;;;2.13;1.33;;;12.20;99.90;;;;;;10553399;28;20809;-60
2024/01/26 05:26:12;;;;;;;0.28;0.28;;;11.60;99.90;;;;;;10521154;28;20519;-60
2024/01/26 05:31:16;;;;;;;0.10;0.10;;;11.80;99.90;;;;;;10526655;28;20529;-59
2024/01/26 05:36:18;;;;;;;0.30;0.30;;;11.20;99.90;;;;;;10522936;27;20056;-60
2024/01/26 05:41:20;;;;;;;0.47;0.47;;;11.30;99.90;;;;;;10524092;28;20046;-59
2024/01/26 05:46:23;;;;;;;0.35;0.35;;;11.20;99.90;;;;;;10524331;28;20054;-59
2024/01/26 05:51:25;;;;;;;0.22;0.22;;;11.20;99.90;;;;;;10528256;28;20044;-59
2024/01/26 05:56:27;;;;;;;0.10;0.10;;;11.10;99.90;;;;;;10523623;28;20047;-59
2024/01/26 06:01:30;;;;;;;0.20;0.20;;;11.00;99.90;;;;;;10514606;28;20113;-59
2024/01/26 06:06:32;;;;;;;0.90;0.90;;;11.10;99.90;;;;;;10524801;28;20121;-58
2024/01/26 06:11:34;;;;;;;0.10;0.10;;;11.10;99.90;;;;;;10521896;28;20044;-59
2024/01/26 06:16:38;;;;;;;0.10;0.10;;;11.30;99.90;;;;;;10514141;28;20061;-59
2024/01/26 06:21:40;;;;;;;0.52;0.52;;;11.40;99.90;;;;;;10515538;28;20110;-59
2024/01/26 06:26:42;;;;;;;10.82;9.23;;;11.20;99.90;;;;;;10513607;28;20205;-58
2024/01/26 06:31:45;;;;;;;10.88;8.95;;;11.30;99.90;;;;;;10523945;28;20048;-60
2024/01/26 06:36:47;;;;;;;17.42;11.10;;;11.50;99.90;;;;;;10518271;27;20176;-58
2024/01/26 06:41:49;;;;;;;16.60;10.80;;;11.40;99.90;;;;;;10523621;28;20044;-59
2024/01/26 06:46:53;;;;;;;18.60;10.93;;;11.50;99.90;;;;;;10524683;28;20165;-60
2024/01/26 06:51:55;;;;;;;15.73;7.07;;;11.50;99.90;;;;;;10524121;28;20074;-60
2024/01/26 06:56:57;;;;;;;18.40;8.55;;;11.70;99.90;;;;;;10524017;28;20430;-61
2024/01/26 07:02:00;;;;;;;17.60;9.93;;;11.50;99.90;;;;;;10528783;28;20055;-60
2024/01/26 07:07:02;;;;;;;17.30;8.98;;;11.30;99.90;;;;;;10523198;28;20056;-60
2024/01/26 07:12:05;;;;;;;20.92;8.65;;;11.40;99.90;;;;;;10522036;28;20051;-61
2024/01/26 07:17:08;;;;;;;28.17;9.80;;;11.20;99.90;;;;;;10511608;28;20565;-60
2024/01/26 07:22:10;;;;;;;19.38;7.40;;;11.00;99.90;;;;;;10519684;28;20064;-60
2024/01/26 07:27:12;;;;;;;39.72;11.65;;;11.10;99.90;;;;;;10524947;28;20639;-60
2024/01/26 07:32:16;;;;;;;43.72;10.05;;;10.70;99.90;;;;;;10521031;28;20044;-59
2024/01/26 07:37:18;;;;;;;41.95;10.07;;;10.70;99.90;;;;;;10514010;28;20051;-60
2024/01/26 07:42:20;;;;;;;40.03;9.50;;;11.00;99.90;;;;;;10515697;28;20059;-62
2024/01/26 07:47:24;;;;;;;53.70;7.57;;;10.60;99.90;;;;;;10519998;28;20083;-59
2024/01/26 07:52:26;;;;;;;49.70;10.02;;;10.50;99.90;;;;;;10525503;28;20131;-61
2024/01/26 07:57:28;;;;;;;40.60;6.22;;;10.40;99.90;;;;;;10523355;28;20055;-60
2024/01/26 08:02:31;;;;;;;0.10;0.10;;;10.30;99.90;;;;;;10525189;28;20386;-60
2024/01/26 08:07:33;;;;;;;0.17;0.17;;;10.30;99.90;;;;;;10519154;28;20872;-60
2024/01/26 08:12:35;;;;;;;0.50;0.50;;;10.20;99.90;;;;;;10516682;28;20126;-59
2024/01/26 08:17:39;;;;;;;0.10;0.10;;;10.20;99.90;;;;;;10517479;28;20063;-60
2024/01/26 08:22:41;;;;;;;1.70;1.60;;;10.40;99.90;;;;;;10520359;28;20804;-60
2024/01/26 08:27:43;;;;;;;14.38;3.50;;;10.20;99.90;;;;;;10519865;28;20554;-60
2024/01/26 08:32:46;;;;;;;0.30;0.30;;;10.10;99.90;;;;;;10512887;28;20048;-60
2024/01/26 08:37:48;;;;;;;39.88;6.50;;;9.80;99.90;;;;;;10516061;28;20059;-60
2024/01/26 08:42:50;;;;;;;0.15;0.15;;;9.70;99.90;;;;;;10512899;28;20087;-59
2024/01/26 08:47:54;;;;;;;0.10;0.10;;;9.50;99.90;;;;;;10520054;28;20783;-59
2024/01/26 08:52:55;;;;;;;;;;;10.00;99.90;;;;;;10520955;28;20150;-60
2024/01/26 08:57:57;;;;;;;1.20;1.10;;;9.80;99.90;;;;;;10515122;28;19932;-60
2024/01/26 09:03:02;;;;;;;0.55;0.55;;;9.50;99.90;;;;;;10527521;28;20048;-60
2024/01/26 09:08:05;;;;;;;0.20;0.20;;;9.30;99.90;;;;;;10521327;28;20054;-59
2024/01/26 09:13:07;;;;;;;0.10;0.10;;;9.80;99.90;;;;;;10517278;28;20052;-59
2024/01/26 09:18:10;;;;;;;2.20;2.00;;;9.80;99.90;;;;;;10524150;28;20040;-59
2024/01/26 09:23:12;;;;;;;35.47;3.92;;;9.50;99.90;;;;;;10519569;28;20728;-59
2024/01/26 09:28:14;;;;;;;27.08;2.92;;;9.40;99.90;;;;;;10527594;28;20059;-60
2024/01/26 09:33:18;;;;;;;15.15;2.95;;;8.90;99.90;;;;;;10522035;28;20685;-60
2024/01/26 09:38:20;;;;;;;21.35;3.05;;;9.20;99.90;;;;;;10515421;28;20205;-60
2024/01/26 09:43:22;;;;;;;15.52;1.63;;;9.00;99.90;;;;;;10514835;28;20052;-59
2024/01/26 09:48:26;;;;;;;14.00;3.30;;;9.10;99.90;;;;;;10522273;28;20992;-60
2024/01/26 09:53:30;;;;;;;28.35;2.60;;;8.90;99.90;;;;;;10523116;28;20073;-57
2024/01/26 09:58:32;;;;;;;15.88;2.28;;;8.90;99.90;;;;;;10520988;28;20063;-59
2024/01/26 10:03:36;;;;;;;6.97;1.80;;;8.90;99.90;;;;;;10526166;28;20044;-59
2024/01/26 10:08:39;;;;;;;6.88;1.13;;;9.30;99.90;;;;;;10517468;28;21217;-59
2024/01/26 10:13:41;;;;;;;22.77;2.93;;;9.00;99.90;;;;;;10523220;28;20054;-59
2024/01/26 10:18:45;;;;;;;13.38;1.85;;;9.00;99.90;;;;;;10519562;28;20492;-60
2024/01/26 10:23:47;;;;;;;15.45;2.90;;;9.60;99.90;;;;;;10515662;28;20055;-59
2024/01/26 10:28:52;;;;;;;15.50;3.08;;;9.10;99.90;;;;;;10519360;28;20144;-58
2024/01/26 10:33:56;;;;;;;11.75;2.35;;;9.10;99.90;;;;;;10520054;28;22686;-60
2024/01/26 10:39:00;;;;;;;21.52;3.38;;;9.30;99.90;;;;;;10519604;28;20126;-60
2024/01/26 10:44:03;;;;;;;11.10;1.90;;;9.10;99.90;;;;;;10517769;28;20079;-58
2024/01/26 10:49:08;;;;;;;5.07;1.38;;;9.40;99.90;;;;;;10514418;28;20151;-60
2024/01/26 10:54:11;;;;;;;14.27;3.00;;;9.00;99.90;;;;;;10520180;28;20048;-59
2024/01/26 10:59:16;;;;;;;21.33;3.78;;;9.50;99.90;;;;;;10513002;28;20063;-59
2024/01/26 11:04:20;;;;;;;25.60;3.22;;;9.30;99.90;;;;;;10516647;28;20635;-61
2024/01/26 11:09:23;;;;;;;32.10;4.00;;;9.30;99.90;;;;;;10516432;28;20043;-59
2024/01/26 11:14:28;;;;;;;9.85;2.58;;;9.30;99.90;;;;;;10512494;28;20653;-59
2024/01/26 11:19:33;;;;;;;16.92;2.35;;;9.90;99.90;;;;;;10519401;28;20413;-58
2024/01/26 11:24:36;;;;;;;15.52;2.33;;;9.50;99.90;;;;;;10511967;28;20124;-60
2024/01/26 11:29:40;;;;;;;4.60;1.48;;;9.10;99.90;;;;;;10521047;28;20052;-60
2024/01/26 11:34:44;;;;;;;12.20;2.65;;;9.50;99.90;;;;;;10508547;28;20573;-61
2024/01/26 11:39:46;;;;;;;18.17;3.55;;;9.50;99.90;;;;;;10510010;28;20578;-61
2024/01/26 11:45:07;;;;;;;17.53;3.63;;;9.20;99.90;;;;;;10506241;28;20048;-60
2024/01/26 11:50:12;;;;;;;32.80;4.82;;;9.50;99.90;;;;;;10506022;28;20052;-60
2024/01/26 11:55:15;;;;;;;21.98;4.60;;;9.20;99.90;;;;;;10510381;28;20056;-59
2024/01/26 12:00:17;;;;;;;22.60;3.40;;;8.90;99.90;;;;;;10516427;28;20221;-60
2024/01/26 12:05:21;;;;;;;20.93;4.47;;;9.20;99.90;;;;;;10516379;28;20051;-58
2024/01/26 12:10:24;;;;;;;30.38;4.18;;;9.00;99.90;;;;;;10519735;28;20476;-61
2024/01/26 12:15:30;;;;;;;18.50;3.53;;;9.10;99.90;;;;;;10515996;28;20040;-58
2024/01/26 12:20:35;;;;;;;32.40;4.38;;;8.90;99.90;;;;;;10524902;28;20051;-60
2024/01/26 12:25:37;;;;;;;14.50;2.20;;;8.80;99.90;;;;;;10510970;28;20048;-59
2024/01/26 12:30:42;;;;;;;23.23;3.40;;;9.70;99.90;;;;;;10512323;28;20456;-58
2024/01/26 12:35:46;;;;;;;14.43;2.83;;;9.30;99.90;;;;;;10516830;28;20113;-59
2024/01/26 12:40:48;;;;;;;21.02;2.90;;;9.20;99.90;;;;;;10511263;28;20060;-58
2024/01/26 12:45:51;;;;;;;19.55;2.65;;;9.30;99.90;;;;;;10513470;28;20442;-58
2024/01/26 12:50:54;;;;;;;22.63;4.13;;;9.60;99.90;;;;;;10516334;28;20048;-59
2024/01/26 12:55:56;;;;;;;13.75;2.70;;;9.50;99.90;;;;;;10509746;28;20064;-56
2024/01/26 13:00:58;;;;;;;10.63;2.25;;;9.50;99.90;;;;;;10526402;28;20064;-57
2024/01/26 13:06:02;;;;;;;17.17;3.27;;;9.70;99.90;;;;;;10522180;28;20850;-60
2024/01/26 13:11:05;;;;;;;21.15;3.28;;;9.50;99.90;;;;;;10519647;28;20051;-60
2024/01/26 13:16:07;;;;;;;17.52;3.35;;;9.70;99.90;;;;;;10520611;28;20185;-58
2024/01/26 13:21:13;;;;;;;6.93;1.85;;;9.60;99.90;;;;;;10509824;28;20128;-56
2024/01/26 13:26:17;;;;;;;22.52;3.33;;;9.80;99.90;;;;;;10515396;28;20079;-58
2024/01/26 13:31:20;;;;;;;19.33;3.05;;;9.80;99.90;;;;;;10503394;28;20940;-57
2024/01/26 13:36:23;;;;;;;18.05;2.47;;;10.00;99.90;;;;;;10510752;28;20082;-57
2024/01/26 13:41:25;;;;;;;22.05;2.38;;;10.20;99.90;;;;;;10511311;28;20051;-56
2024/01/26 13:46:27;;;;;;;20.23;3.37;;;10.20;99.90;;;;;;10515120;28;20040;-59
2024/01/26 13:51:31;;;;;;;16.05;2.92;;;10.10;99.90;;;;;;10512451;28;20040;-57
2024/01/26 13:56:33;;;;;;;22.77;3.45;;;10.20;99.90;;;;;;10516193;28;20046;-59
2024/01/26 14:01:37;;;;;;;14.20;3.03;;;10.50;99.90;;;;;;10517859;28;20083;-58
2024/01/26 14:06:42;;;;;;;18.80;3.17;;;10.60;99.90;;;;;;10514168;28;20044;-57
2024/01/26 14:11:44;;;;;;;15.18;2.60;;;10.80;99.90;;;;;;10518100;28;20059;-58
2024/01/26 14:16:46;;;;;;;14.13;2.22;;;10.80;99.90;;;;;;10509019;28;20055;-56
2024/01/26 14:21:49;;;;;;;21.43;3.13;;;11.20;99.90;;;;;;10516534;28;20047;-59
2024/01/26 14:26:51;;;;;;;15.52;2.70;;;10.90;99.90;;;;;;10514092;28;21024;-60
2024/01/26 14:31:53;;;;;;;25.70;3.60;;;11.20;99.90;;;;;;10517212;28;20201;-57
2024/01/26 14:36:58;;;;;;;20.50;3.63;;;11.50;99.90;;;;;;10508233;28;20459;-58
2024/01/26 14:42:00;;;;;;;22.00;3.20;;;11.10;99.90;;;;;;10513045;28;20792;-58
2024/01/26 14:47:03;;;;;;;17.92;2.47;;;10.90;99.90;;;;;;10512985;28;20051;-57
2024/01/26 14:52:07;;;;;;;20.23;2.33;;;11.60;99.90;;;;;;10518967;28;20055;-57
2024/01/26 14:57:09;;;;;;;10.52;2.20;;;11.40;99.90;;;;;;10521105;28;20051;-57
2024/01/26 15:02:11;;;;;;;29.58;3.88;;;11.40;99.90;;;;;;10515151;28;20402;-57
2024/01/26 15:07:15;;;;;;;23.70;2.33;;;11.10;99.90;;;;;;10509580;28;20048;-58
2024/01/26 15:12:17;;;;;;;18.20;2.65;;;11.30;99.90;;;;;;10514738;28;20140;-58
2024/01/26 15:17:19;;;;;;;13.10;2.53;;;11.40;99.90;;;;;;10504535;28;20055;-58
2024/01/26 15:22:22;;;;;;;17.50;2.33;;;11.60;99.90;;;;;;10507878;28;20059;-57
2024/01/26 15:27:25;;;;;;;23.10;3.50;;;11.40;99.90;;;;;;10510442;28;20047;-57
2024/01/26 15:32:29;;;;;;;11.73;2.22;;;11.30;99.90;;;;;;10498366;28;20043;-58
2024/01/26 15:37:33;;;;;;;19.95;3.10;;;11.60;99.90;;;;;;10498837;28;20590;-57
2024/01/26 15:42:34;;;;;;;23.33;3.30;;;11.50;99.90;;;;;;10509214;28;20840;-59
2024/01/26 15:47:38;;;;;;;32.28;3.20;;;11.10;99.90;;;;;;10516240;28;20056;-58
2024/01/26 15:52:41;;;;;;;17.98;2.35;;;11.60;99.90;;;;;;10512429;28;20048;-55
2024/01/26 15:57:43;;;;;;;13.27;1.67;;;11.40;99.90;;;;;;10519773;28;20048;-58
2024/01/26 16:02:45;;;;;;;16.00;1.63;;;11.00;99.90;;;;;;10522236;28;20106;-61
2024/01/26 16:07:49;;;;;;;19.35;2.00;;;11.00;99.90;;;;;;10521946;28;20518;-60
2024/01/26 16:12:51;;;;;;;20.48;3.67;;;11.60;99.90;;;;;;10515944;28;20823;-57
2024/01/26 16:17:53;;;;;;;27.15;4.50;;;10.50;99.90;;;;;;10508543;28;20121;-59
2024/01/26 16:22:59;;;;;;;14.50;2.87;;;10.70;99.90;;;;;;10504020;28;20047;-60
2024/01/26 16:28:01;;;;;;;16.85;2.42;;;11.40;99.90;;;;;;10508022;28;20074;-59
2024/01/26 16:33:04;;;;;;;21.73;3.23;;;11.00;99.90;;;;;;10513819;28;20074;-59
2024/01/26 16:38:07;;;;;;;;;;;10.60;99.90;;;;;;10508123;28;20591;-59
2024/01/26 16:43:11;;;;;;;13.15;3.30;;;10.00;99.90;;;;;;10508576;28;19924;-58
2024/01/26 16:48:13;;;;;;;28.15;4.72;;;9.50;99.90;;;;;;10514818;28;20055;-59
2024/01/26 16:53:16;;;;;;;22.48;3.35;;;9.90;99.90;;;;;;10522549;28;20048;-60
2024/01/26 16:58:18;;;;;;;39.33;3.50;;;9.30;99.90;;;;;;10516376;28;20043;-58
2024/01/26 17:03:20;;;;;;;35.65;3.47;;;8.60;99.90;;;;;;10514882;28;20055;-58
2024/01/26 17:08:27;;;;;;;28.85;3.92;;;9.20;99.90;;;;;;10513532;28;20063;-59
2024/01/26 17:13:29;;;;;;;16.58;2.95;;;10.40;99.90;;;;;;10517781;28;20885;-58
2024/01/26 17:18:31;;;;;;;22.60;4.30;;;10.10;99.90;;;;;;10514050;28;20921;-60
2024/01/26 17:23:37;;;;;;;18.77;4.00;;;9.80;99.90;;;;;;10518769;28;20048;-59
2024/01/26 17:28:39;;;;;;;39.65;3.83;;;10.00;99.90;;;;;;10520422;28;20348;-58
2024/01/26 17:33:41;;;;;;;23.25;2.50;;;9.40;99.90;;;;;;10508773;28;20128;-59
2024/01/26 17:38:44;;;;;;;21.90;3.60;;;9.90;99.90;;;;;;10503316;28;20060;-55
2024/01/26 17:43:46;;;;;;;20.83;3.25;;;9.60;99.90;;;;;;10525428;28;20078;-58
2024/01/26 17:48:48;;;;;;;18.42;3.05;;;9.60;99.90;;;;;;10516820;28;20055;-59
2024/01/26 17:53:52;;;;;;;15.63;3.43;;;9.30;99.90;;;;;;10517169;28;20577;-59
2024/01/26 17:58:56;;;;;;;33.30;3.72;;;9.50;99.90;;;;;;10516723;28;20047;-57
2024/01/26 18:03:58;;;;;;;35.72;4.65;;;8.80;99.90;;;;;;10510213;28;20047;-61
2024/01/26 18:09:01;;;;;;;22.20;3.85;;;8.60;99.90;;;;;;10513231;28;20067;-57
2024/01/26 18:14:04;;;;;;;18.60;2.45;;;9.20;99.90;;;;;;10512002;28;20051;-58
2024/01/26 18:19:06;;;;;;;22.05;2.97;;;10.20;99.90;;;;;;10521947;28;20048;-61
2024/01/26 18:24:10;;;;;;;19.63;3.72;;;9.80;99.90;;;;;;10515205;28;20048;-61
2024/01/26 18:29:12;;;;;;;25.73;3.10;;;10.10;99.90;;;;;;10516939;28;20052;-61
2024/01/26 18:34:14;;;;;;;12.93;2.33;;;9.50;99.90;;;;;;10519533;28;20039;-61
2024/01/26 18:39:18;;;;;;;29.58;4.88;;;9.30;99.90;;;;;;10515773;28;20078;-63
2024/01/26 18:44:20;;;;;;;30.30;5.05;;;8.70;99.90;;;;;;10525106;28;20158;-63
2024/01/26 18:49:22;;;;;;;3.58;1.67;;;9.40;99.90;;;;;;10517506;28;20510;-61
2024/01/26 18:54:25;;;;;;;18.05;2.97;;;9.60;99.90;;;;;;10521505;28;20048;-63
2024/01/26 18:59:27;;;;;;;;;;;9.70;99.90;;;;;;10520260;27;20276;-64
2024/01/26 19:04:29;;;;;;;34.78;4.78;;;9.80;99.90;;;;;;10526729;28;19924;-65
2024/01/26 19:09:34;;;;;;;23.95;4.40;;;9.20;99.90;;;;;;10528065;28;20048;-64
2024/01/26 19:14:36;;;;;;;30.33;4.15;;;9.40;99.90;;;;;;10519826;28;20047;-66
2024/01/26 19:19:42;;;;;;;15.50;2.63;;;10.30;99.90;;;;;;10519191;28;20054;-64
2024/01/26 19:24:45;;;;;;;22.05;3.58;;;9.10;99.90;;;;;;10525277;28;20066;-61
2024/01/26 19:29:47;;;;;;;23.45;4.55;;;9.90;99.90;;;;;;10529003;28;20166;-62
2024/01/26 19:34:49;;;;;;;21.15;3.03;;;9.50;99.90;;;;;;10515298;28;20075;-62
2024/01/26 19:39:52;;;;;;;37.80;3.70;;;9.50;99.90;;;;;;10527684;28;20051;-61
2024/01/26 19:44:54;;;;;;;18.88;3.03;;;9.10;99.90;;;;;;10514460;28;20060;-63
2024/01/26 19:49:56;;;;;;;21.85;2.88;;;11.00;99.90;;;;;;10521240;28;20052;-60
2024/01/26 19:54:59;;;;;;;29.90;4.93;;;12.80;99.90;;;;;;10510764;28;20891;-60
2024/01/26 20:00:02;;;;;;;23.35;3.35;;;13.20;99.90;;;;;;10516445;28;20052;-60
2024/01/26 20:05:07;;;;;;;14.75;2.58;;;13.00;99.90;;;;;;10515157;28;20059;-57
2024/01/26 20:10:11;;;;;;;19.38;3.40;;;13.30;99.90;;;;;;10510419;28;20056;-62
2024/01/26 20:15:13;;;;;;;16.58;2.47;;;10.90;99.90;;;;;;10510189;28;20052;-56
2024/01/26 20:20:24;;;;;;;19.40;3.23;;;10.80;99.90;;;;;;10512125;28;20068;-59
2024/01/26 20:25:28;;;;;;;19.55;3.67;;;10.30;99.90;;;;;;10511328;28;20056;-57
2024/01/26 20:30:30;;;;;;;26.58;4.22;;;9.20;99.90;;;;;;10519677;28;20060;-55
2024/01/26 20:35:32;;;;;;;29.70;3.90;;;8.70;99.90;;;;;;10515276;28;20133;-57
2024/01/26 20:40:36;;;;;;;20.45;3.80;;;8.50;99.90;;;;;;10502328;28;20051;-57
2024/01/26 20:45:40;;;;;;;35.72;6.97;;;8.30;99.90;;;;;;10497695;28;20075;-58
2024/01/26 20:50:42;;;;;;;31.25;10.48;;;9.10;99.90;;;;;;10500617;28;20051;-58
2024/01/26 20:55:45;;;;;;;22.67;4.57;;;8.40;99.90;;;;;;10512633;28;20055;-56
2024/01/26 21:00:47;;;;;;;22.73;3.25;;;9.20;99.90;;;;;;10513932;28;20043;-57
2024/01/26 21:05:49;;;;;;;24.70;3.70;;;8.50;99.90;;;;;;10512585;28;20060;-57
2024/01/26 21:10:53;;;;;;;25.42;4.30;;;8.10;99.90;;;;;;10519036;28;20907;-55
2024/01/26 21:15:55;;;;;;;21.83;4.70;;;9.20;99.90;;;;;;10515932;28;20047;-57
2024/01/26 21:20:57;;;;;;;14.55;3.15;;;8.80;99.90;;;;;;10513170;28;20775;-56
2024/01/26 21:26:01;;;;;;;24.77;4.95;;;8.20;99.90;;;;;;10511880;28;20044;-57
2024/01/26 21:31:03;;;;;;;29.25;6.82;;;8.20;99.90;;;;;;10516042;28;20936;-58
2024/01/26 21:36:06;;;;;;;22.65;4.20;;;6.90;99.90;;;;;;10513104;28;20042;-55
2024/01/26 21:41:09;;;;;;;24.17;6.13;;;7.50;99.90;;;;;;10514574;28;20087;-57
2024/01/26 21:46:14;;;;;;;18.73;3.33;;;8.00;99.90;;;;;;10515271;28;20147;-57
2024/01/26 21:51:17;;;;;;;28.48;6.68;;;8.50;99.90;;;;;;10512621;28;20044;-57
2024/01/26 21:56:21;;;;;;;24.27;5.43;;;8.40;99.90;;;;;;10519492;28;20052;-56
2024/01/26 22:01:26;;;;;;;26.25;3.90;;;8.20;99.90;;;;;;10521161;28;20208;-60
2024/01/26 22:06:32;;;;;;;20.60;2.92;;;9.30;99.90;;;;;;10521548;28;20051;-57
2024/01/26 22:11:36;;;;;;;15.20;2.67;;;9.50;99.90;;;;;;10513078;28;20055;-54
2024/01/26 22:16:38;;;;;;;15.40;2.97;;;8.70;99.90;;;;;;10526353;28;20089;-57
2024/01/26 22:21:40;;;;;;;15.85;2.55;;;8.70;99.90;;;;;;10522809;28;20063;-57
2024/01/26 22:26:45;;;;;;;13.68;2.60;;;8.00;99.90;;;;;;10521542;27;20062;-57
2024/01/26 22:31:47;;;;;;;14.82;2.00;;;9.00;99.90;;;;;;10517529;28;20063;-55
2024/01/26 22:36:49;;;;;;;12.95;2.83;;;10.20;99.90;;;;;;10517768;28;20491;-60
2024/01/26 22:41:53;;;;;;;22.90;3.67;;;10.70;99.90;;;;;;10525713;28;20141;-59
2024/01/26 22:46:56;;;;;;;15.60;2.45;;;10.50;99.90;;;;;;10505750;28;20593;-57
2024/01/26 22:51:58;;;;;;;13.15;2.90;;;11.10;99.90;;;;;;10530966;28;20047;-56
2024/01/26 22:57:02;;;;;;;19.92;3.85;;;11.50;99.90;;;;;;10524733;28;20078;-59
2024/01/26 23:02:04;;;;;;;15.02;2.17;;;11.30;99.90;;;;;;10526590;28;20054;-58
2024/01/26 23:07:06;;;;;;;24.30;3.08;;;12.10;99.90;;;;;;10526159;28;20043;-56
2024/01/26 23:12:09;;;;;;;22.60;3.80;;;12.10;99.90;;;;;;10528958;28;20059;-55
2024/01/26 23:17:11;;;;;;;16.63;3.42;;;11.70;99.90;;;;;;10534318;28;20112;-58
2024/01/26 23:22:14;;;;;;;10.23;2.05;;;11.90;99.90;;;;;;10529703;28;20044;-59
2024/01/26 23:27:17;;;;;;;21.27;2.50;;;11.90;99.90;;;;;;10520835;28;20422;-56
2024/01/26 23:32:19;;;;;;;21.60;2.83;;;11.80;99.90;;;;;;10522355;28;20048;-58
2024/01/26 23:37:21;;;;;;;23.73;2.92;;;11.40;99.90;;;;;;10525889;28;20754;-57
2024/01/26 23:42:25;;;;;;;14.17;2.37;;;11.00;99.90;;;;;;10520687;28;20056;-57
2024/01/26 23:47:27;;;;;;;12.38;2.83;;;11.50;99.90;;;;;;10517539;28;20047;-59
2024/01/26 23:52:29;;;;;;;15.70;2.78;;;11.20;99.90;;;;;;10528032;28;20503;-56
2024/01/26 23:57:33;;;;;;;24.27;2.63;;;11.80;99.90;;;;;;10523192;28;20040;-55
